Angliers, Canada
Current Conditions -  °F | °C
As of 1:00 AM on Saturday 29 Nov 2014 (Local Time) from CYXR Reporting Station
Clear Clear  
Wind Chill: -16°   Ceiling: Unl
Heat Index:   Visibility: 9mi
Dew Point: -4°   Wind: 9mph
Humidity: 85%   Direction: 150°SSE
Pressure: 30.07"   Gusts: NA
Location:  47.55°N, 79.23°W
Report Text: CYXR 290600Z AUTO 15008KT 9SM CLR M18/M20 A3007 RMK ICG SLP209
Loading
Personal Weather Stations






























Interactive Weather Map New forecast layout! Learn more

10-Day Weather Forecast

Advertisements
Track Severe Weather on mobile